Latest Conditions
At L.F.Wade Int. Airport
Recorded at 7:06 pm
Showers
Temp.: 
26°C/78°F
Humidity: 
86%
Wind: 
W 9KT
or 10mph
UV Index: 
0
Island Observations
 
Observations
Sunday, June 20, 2021

Observations are in local time and taken at least once an hour, or upon the start and end of specified events such as showers and thunderstorms.

Time Sky / Weather Wind Speed/Gusts Temp. R.H. Pressure
     knots (mph)  °C (°F)  %  mb / "Hg
 19:06 Mostly Cloudy Showers W 9/0 (10/0) 26(78) 86 1021 / 30.16
 18:55 Mostly Cloudy Showers W 13/0 (15/0) 25(76) 88 1022 / 30.17
 18:39 Mostly Cloudy Showers WNW 12/0 (14/0) 25(77) 82 1021 / 30.16
 17:55 Mostly Cloudy  WSW 13/0 (15/0) 27(81) 80 1021 / 30.15
 16:55 Mostly Cloudy  SW 14/0 (16/0) 28(83) 74 1021 / 30.16
 15:55 Mostly Cloudy  SW 13/0 (15/0) 28(82) 73 1022 / 30.17
 14:55 Mostly Cloudy  SSW 14/0 (16/0) 28(83) 71 1022 / 30.18
 13:55 Mostly Cloudy  SSW 15/0 (17/0) 28(83) 67 1022 / 30.19
 12:55 Mostly Cloudy  SSW 15/0 (17/0) 28(83) 67 1023 / 30.20
 11:55 Mostly Cloudy  SW 12/0 (14/0) 28(82) 69 1022 / 30.19
 10:55 Mostly Cloudy  SSW 14/0 (16/0) 27(81) 71 1022 / 30.19
 09:55 Mostly Cloudy  SSW 12/0 (14/0) 26(78) 76 1023 / 30.20
 08:55 Mostly Cloudy  SW 9/0 (10/0) 26(78) 79 1023 / 30.20
 07:55 Mostly Cloudy  SW 8/0 (9/0) 25(77) 81 1022 / 30.19
 06:55 Mostly Cloudy  SW 6/0 (7/0) 24(76) 86 1022 / 30.18
 05:55 Mostly Cloudy  WSW 6/0 (7/0) 24(75) 85 1022 / 30.17
 04:55 Mostly Cloudy  SW 5/0 (6/0) 24(75) 86 1021 / 30.16
 03:55 Mostly Cloudy  SW 5/0 (6/0) 24(75) 85 1021 / 30.16
 02:55 Mostly Cloudy  SW 5/0 (6/0) 24(75) 84 1021 / 30.16
 01:55 Mostly Cloudy  SW 5/0 (6/0) 24(75) 83 1022 / 30.17
 00:55 Mostly Cloudy  S 9/0 (10/0) 24(76) 82 1022 / 30.18
 23:55 Partly Cloudy  S 9/0 (10/0) 24(76) 79 1022 / 30.19
 22:55 Partly Cloudy  SSW 9/0 (10/0) 24(76) 76 1022 / 30.19
 21:55 Mostly Cloudy  SSW 7/0 (8/0) 24(75) 70 1023 / 30.20
 20:55 Mostly Cloudy  SSW 6/0 (7/0) 24(76) 61 1022 / 30.19
 19:55 Mostly Cloudy  SSW 6/0 (7/0) 25(77) 58 1022 / 30.19
 18:55 Mostly Cloudy  SSW 8/0 (9/0) 25(78) 56 1022 / 30.18
 17:55 Partly Cloudy  WSW 5/0 (6/0) 26(79) 57 1022 / 30.18
 16:55 Partly Cloudy  W 6/0 (7/0) 26(78) 55 1022 / 30.17
 15:55 Mostly Cloudy  W 8/0 (9/0) 26(78) 56 1022 / 30.18
 14:55 Mostly Cloudy  W 7/0 (8/0) 26(78) 55 1022 / 30.18
 13:55 Partly Cloudy  W 7/0 (8/0) 26(78) 56 1022 / 30.19
 12:55 Partly Cloudy  W 7/0 (8/0) 25(78) 57 1022 / 30.17
 11:55 Partly Cloudy  W 8/0 (9/0) 25(78) 57 1022 / 30.18
 10:55 Few Clouds  W 7/0 (8/0) 25(78) 61 1022 / 30.17
 09:55 Partly Cloudy  W 7/0 (8/0) 24(76) 60 1022 / 30.18
 08:55 Partly Cloudy  WNW 9/0 (10/0) 24(75) 61 1022 / 30.18
 07:55 Partly Cloudy  WNW 7/0 (8/0) 24(75) 61 1022 / 30.17
 06:55 Few Clouds  WNW 7/0 (8/0) 23(74) 58 1021 / 30.15
 05:55 Clear  WNW 6/0 (7/0) 23(73) 57 1020 / 30.13
 04:55 Few Clouds  WNW 7/0 (8/0) 23(73) 58 1020 / 30.12
 03:55 Clear  WNW 8/0 (9/0) 23(74) 59 1020 / 30.11
 02:55 Clear  WNW 8/0 (9/0) 23(74) 61 1020 / 30.11
 01:55 Few Clouds  WNW 8/0 (9/0) 23(74) 64 1020 / 30.11
 00:55 Few Clouds  WNW 9/0 (10/0) 24(74) 64 1020 / 30.12
 23:55 Few Clouds  WNW 10/0 (12/0) 24(74) 70 1020 / 30.12
 22:55 Clear  WNW 9/0 (10/0) 24(75) 66 1020 / 30.12
 21:55 Clear  WNW 12/0 (14/0) 24(75) 65 1020 / 30.12
 20:55 Few Clouds  WNW 11/0 (13/0) 24(75) 64 1019 / 30.10
 19:55 Partly Cloudy  WNW 13/0 (15/0) 24(76) 70 1019 / 30.09
 18:55 Partly Cloudy  W 14/0 (16/0) 25(77) 67 1018 / 30.07
 17:55 Partly Cloudy  WNW 13/0 (15/0) 26(78) 64 1018 / 30.07
 16:55 Partly Cloudy  W 13/0 (15/0) 26(79) 62 1018 / 30.07
 15:55 Partly Cloudy  W 10/0 (12/0) 26(79) 70 1018 / 30.07
 14:55 Partly Cloudy  W 12/0 (14/0) 26(79) 69 1018 / 30.07
 13:55 Mostly Cloudy Showers W 11/0 (13/0) 26(78) 73 1019 / 30.09
 13:36 Mostly Cloudy  WNW 10/0 (12/0) 25(77) 73 1019 / 30.09
 13:16 Mostly Cloudy Showers W 15/0 (17/0) 24(76) 73 1019 / 30.09
 12:55 Mostly Cloudy Showers W 11/0 (13/0) 26(78) 73 1019 / 30.09
 12:32 Mostly Cloudy Showers W 15/0 (17/0) 24(76) 84 1019 / 30.09
 11:55 Mostly Cloudy Showers W 12/0 (14/0) 25(77) 75 1019 / 30.09
 10:55 Mostly Cloudy  WNW 10/0 (12/0) 25(78) 77 1019 / 30.08
 09:55 Mostly Cloudy Showers WNW 10/0 (12/0) 25(77) 81 1019 / 30.09
 08:55 Mostly Cloudy  W 13/0 (15/0) 24(76) 81 1019 / 30.09
 07:55 Mostly Cloudy  W 12/0 (14/0) 24(76) 77 1019 / 30.08
 07:27 Mostly Cloudy Showers WSW 10/0 (12/0) 24(76) 77 1019 / 30.08
 06:55 Mostly Cloudy Showers NW 4/0 (5/0) 22(72) 87 1018 / 30.07
 06:01 Overcast Showers W 13/0 (15/0) 22(72) 90 1018 / 30.07
 05:55 Overcast Showers W 11/0 (13/0) 23(73) 90 1018 / 30.06
 05:47 Overcast Showers W 10/0 (12/0) 24(75) 85 1018 / 30.06
 04:55 Mostly Cloudy Showers W 7/0 (8/0) 24(75) 80 1018 / 30.05
 03:55 Overcast Showers WSW 7/0 (8/0) 24(75) 82 1017 / 30.04
 02:55 Overcast  SW 6/0 (7/0) 24(75) 85 1018 / 30.06
 01:55 Overcast  W 8/0 (9/0) 24(74) 85 1018 / 30.07
 01:28 Overcast  W 8/0 (9/0) 24(74) 88 1019 / 30.08
 01:15 Overcast Drizzle W 8/0 (9/0) 23(74) 87 1019 / 30.08
 00:55 Overcast Rain W 8/0 (9/0) 23(74) 88 1018 / 30.07
 00:43 Overcast Rain W 9/0 (10/0) 24(74) 84 1018 / 30.07
 23:55 Overcast Rain W 9/0 (10/0) 24(74) 84 1018 / 30.07
 23:06 Overcast  W 11/0 (13/0) 23(74) 83 1019 / 30.08
 22:55 Overcast Rain W 10/0 (12/0) 23(74) 85 1019 / 30.08
 22:38 Overcast Rain SW 10/0 (12/0) 23(74) 85 1019 / 30.08
 22:21 Overcast Drizzle WSW 11/0 (13/0) 24(75) 86 1018 / 30.07
 21:55 Overcast Rain WSW 12/0 (14/0) 24(75) 85 1018 / 30.07
 21:36 Overcast Rain WSW 13/0 (15/0) 23(74) 87 1018 / 30.06
 20:55 Overcast Rain WSW 12/0 (14/0) 23(74) 88 1018 / 30.06
 20:34 Overcast Rain WSW 13/0 (15/0) 23(74) 88 1018 / 30.06
 19:55 Overcast Rain SW 11/0 (13/0) 23(74) 88 1018 / 30.05
 19:14 Overcast Rain SW 10/0 (12/0) 23(73) 91 1017 / 30.04
 19:06 Overcast Rain WSW 10/0 (12/0) 23(73) 92 1017 / 30.04
 18:55 Overcast Showers WSW 11/0 (13/0) 23(73) 91 1017 / 30.04
 18:20 Overcast Showers W 13/0 (15/0) 22(72) 93 1017 / 30.04
 18:00 Overcast Showers W 13/0 (15/0) 22(72) 97 1018 / 30.05
 17:56 Overcast Showers W 14/0 (16/0) 22(72) 97 1018 / 30.05
 17:55 Overcast Showers W 16/0 (18/0) 22(72) 97 1018 / 30.05
 17:47 Overcast Showers W 16/0 (18/0) 22(72) 96 1018 / 30.06
 17:36 Overcast Showers W 19/0 (22/0) 22(72) 96 1018 / 30.05
 17:33 Overcast Showers W 20/0 (23/0) 22(72) 94 1018 / 30.06
 17:26 Overcast Showers SSW 20/0 (23/0) 24(75) 86 1017 / 30.03
 17:12 Overcast  SSW 20/0 (23/0) 26(79) 89 1017 / 30.02
Island AWOS